Brownsville, TN

9:11 PM CDT en Octubre 20, 2014 (GMT -0500)
Crossroads Community | Change Station
CLOSE
Current Station
Estación meteorológica personal
Location: Bells, TN
Altura: 367 ft
Estaciones meteorológicas cercanas

Alt 367 ft 35.74 °N, 89.12 °W | Updated 3 minutes ago

Despejado
Despejado
56.1 ° F
Sensación térmica 56.1 ° F
N
0.0
Viento Variable Viento desde NNE

Hoy
Alta -- | Baja -- ° F
--% Posibilidad de precipitaciones
Ayer
Alta -- | Baja -- ° F
Precip. -- pul
7:07 AM 6:15 PM
Creciente menguante, 8% visible
Presión 30.01 pul
Visibilidad 10.0 Millas
Nubes Despejado
Punto de rocío 53 ° F
Humedad 88%
Precipitaciones 0.00 pul
Espesor de la nieve No disponible.
UV 0 de una escala de 12
Polen 1.30 de una escala de 12
Calidad del aire No disponible.
Flu Activity Sporadic
METAR KMKL 210153Z AUTO 21004KT 10SM CLR 14/11 A3002 RMK AO2 SLP163 T01390106

More Conditions Fewer Conditions

Presión 30.01 pul
Visibilidad 10.0 Millas
Nubes Despejado
Punto de rocío 53 ° F
Humedad 88%
Precipitaciones 0.00 pul
Espesor de la nieve No disponible.
UV 0 de una escala de 12
Polen 1.30 de una escala de 12
Calidad del aire No disponible.
Flu Activity Sporadic
METAR KMKL 210153Z AUTO 21004KT 10SM CLR 14/11 A3002 RMK AO2 SLP163 T01390106

More Conditions Fewer Conditions

10-Day Weather Forecast

Almanac

Astronomía

Oct. 20, 2014 Salida Puesta
Hora real 7:07 AM CDT 6:15 PM CDT
Crepúsculo civil 6:42 AM CDT 6:41 PM CDT
Crepúsculo náutico 6:12 AM CDT 7:10 PM CDT
Crepúsculo astronómico 5:42 AM CDT 7:40 PM CDT
Luna 4:02 AM CDT (10/20) 4:32 PM CDT (10/20)
Horas de luz 11h 59m
Horas de luz
11h 07m
Tomorrow will be 2m 6s shorter.
Creciente menguante, 8% of the Moon is Illuminated
Hoy
Creciente menguante
Oct 23
Nueva
Oct 30
Cuarto creciente
Nov 6
Luna llena
Nov 14
Cuarto menguante

Extremos de hoy

Máximos del estado Bajos del estado

Community

WunderPhotos

Upload Photos

1,763,572 ¡fotos cargadas!

Nearby

Grosos de nieve

Estación Profundido Altura
No tenemos constancia de nieve nueva.

Actividad de terremotos

Ciudad Distance Mag. Tiempo y dato
No hay informes recientes de la actividad sísmica.
Magnitud mínima muestra es 2,5.

Temperaturas de aguas costeras

Lugar Temperatura
Sin partes meteorológicos de las estaciones

Estaciones meteorológicas cercanas